createdAt,value
2022-10-19T00:01:25.392Z,95028.00
2022-10-19T00:03:59.081Z,95036.00
2022-10-19T00:06:28.188Z,95037.00
2022-10-19T00:09:02.285Z,95041.00
2022-10-19T00:11:30.202Z,95043.00
2022-10-19T00:13:58.511Z,95035.00
2022-10-19T00:16:29.208Z,95043.00
2022-10-19T00:19:01.673Z,95035.00
2022-10-19T00:21:31.555Z,95038.00
2022-10-19T00:24:01.526Z,95029.00
2022-10-19T00:26:30.904Z,95029.00
2022-10-19T00:28:58.333Z,95025.00
2022-10-19T00:31:28.067Z,95028.00
2022-10-19T00:34:00.016Z,95024.00
2022-10-19T00:36:37.324Z,95027.00
2022-10-19T00:39:07.089Z,95026.00
2022-10-19T00:41:37.090Z,95028.00
2022-10-19T00:44:15.882Z,95026.00
2022-10-19T00:46:49.989Z,95018.00
2022-10-19T00:49:23.721Z,95019.00
2022-10-19T00:52:07.487Z,95009.00
2022-10-19T00:54:40.634Z,95021.00
2022-10-19T00:57:11.192Z,95004.00
2022-10-19T00:59:42.761Z,95011.00
2022-10-19T01:02:10.154Z,94997.00
2022-10-19T01:04:43.029Z,95010.00
2022-10-19T01:07:12.898Z,95003.00
2022-10-19T01:09:42.774Z,95016.00
2022-10-19T01:12:22.704Z,95013.00
2022-10-19T01:15:36.933Z,95012.00
2022-10-19T01:18:16.562Z,95010.00
2022-10-19T01:21:43.973Z,95000.00
2022-10-19T01:24:57.850Z,94995.00
2022-10-19T01:27:53.665Z,95006.00
2022-10-19T01:30:40.147Z,94997.00
2022-10-19T01:33:28.094Z,94987.00
2022-10-19T01:36:38.975Z,94987.00
2022-10-19T01:39:33.291Z,94993.00
2022-10-19T01:42:16.572Z,94987.00
2022-10-19T01:44:54.470Z,94988.00
2022-10-19T01:47:31.723Z,94980.00
2022-10-19T01:50:22.786Z,94972.00
2022-10-19T01:52:54.061Z,94986.00
2022-10-19T01:55:27.749Z,94979.00
2022-10-19T01:58:02.732Z,94980.00
2022-10-19T02:00:32.537Z,94972.00
2022-10-19T02:03:00.940Z,94971.00
2022-10-19T02:05:35.002Z,94975.00
2022-10-19T02:08:11.543Z,94974.00
2022-10-19T02:10:40.219Z,94970.00
2022-10-19T02:13:12.228Z,94978.00
2022-10-19T02:15:48.318Z,94976.00
2022-10-19T02:18:21.297Z,94970.00
2022-10-19T02:20:50.770Z,94968.00
2022-10-19T02:23:24.536Z,94969.00
2022-10-19T02:25:54.549Z,94971.00
2022-10-19T02:30:52.810Z,94969.00
2022-10-19T02:33:19.686Z,94958.00
2022-10-19T02:35:51.634Z,94961.00
2022-10-19T02:38:22.237Z,94966.00
2022-10-19T02:41:24.508Z,94963.00
2022-10-19T02:44:02.594Z,94954.00
2022-10-19T02:46:37.907Z,94958.00
2022-10-19T02:49:07.182Z,94951.00
2022-10-19T02:51:57.781Z,94956.00
2022-10-19T02:54:32.479Z,94946.00
2022-10-19T02:56:59.394Z,94941.00
2022-10-19T02:59:26.527Z,94947.00
2022-10-19T03:01:58.342Z,94942.00
2022-10-19T03:04:27.714Z,94949.00
2022-10-19T03:06:57.048Z,94949.00
2022-10-19T03:09:23.886Z,94945.00
2022-10-19T03:11:50.750Z,94931.00
2022-10-19T03:14:17.784Z,94937.00
2022-10-19T03:16:47.300Z,94934.00
2022-10-19T03:19:16.839Z,94925.00
2022-10-19T03:21:43.707Z,94933.00
2022-10-19T03:24:10.619Z,94929.00
2022-10-19T03:26:37.447Z,94934.00
2022-10-19T03:29:07.037Z,94935.00
2022-10-19T03:31:33.914Z,94933.00
2022-10-19T03:34:02.026Z,94933.00
2022-10-19T03:36:35.620Z,94927.00
2022-10-19T03:39:07.594Z,94938.00
2022-10-19T03:41:36.574Z,94924.00
2022-10-19T03:44:06.779Z,94921.00
2022-10-19T03:46:34.217Z,94921.00
2022-10-19T03:49:01.502Z,94922.00
2022-10-19T03:51:32.983Z,94921.00
2022-10-19T03:54:07.735Z,94919.00
2022-10-19T03:56:37.098Z,94912.00
2022-10-19T03:59:10.496Z,94905.00
2022-10-19T04:01:44.459Z,94902.00
2022-10-19T04:04:19.944Z,94896.00
2022-10-19T04:06:53.222Z,94903.00
2022-10-19T04:09:22.236Z,94903.00
2022-10-19T04:11:49.938Z,94905.00
2022-10-19T04:14:32.122Z,94904.00
2022-10-19T04:17:04.330Z,94904.00
2022-10-19T04:19:31.813Z,94911.00
2022-10-19T04:22:08.064Z,94910.00
2022-10-19T04:24:34.938Z,94917.00
2022-10-19T04:27:02.017Z,94912.00
2022-10-19T04:29:30.203Z,94912.00
2022-10-19T04:32:00.466Z,94906.00
2022-10-19T04:34:27.462Z,94904.00
2022-10-19T04:36:54.604Z,94904.00
2022-10-19T04:39:21.596Z,94900.00
2022-10-19T04:41:57.006Z,94895.00
2022-10-19T04:44:27.217Z,94893.00
2022-10-19T04:47:37.787Z,94900.00
2022-10-19T04:50:05.302Z,94894.00
2022-10-19T04:52:41.040Z,94897.00
2022-10-19T04:55:08.528Z,94887.00
2022-10-19T04:57:59.891Z,94897.00
2022-10-19T05:00:28.951Z,94892.00
2022-10-19T05:03:03.533Z,94890.00
2022-10-19T05:05:34.469Z,94892.00
2022-10-19T05:08:04.151Z,94890.00
2022-10-19T05:10:31.359Z,94888.00
2022-10-19T05:13:02.661Z,94891.00
2022-10-19T05:15:30.553Z,94885.00
2022-10-19T05:18:00.583Z,94888.00
2022-10-19T05:20:35.314Z,94885.00
2022-10-19T05:23:13.637Z,94884.00
2022-10-19T05:25:40.488Z,94879.00
2022-10-19T05:28:14.113Z,94876.00
2022-10-19T05:30:53.104Z,94879.00
2022-10-19T05:33:25.033Z,94874.00
2022-10-19T05:35:54.385Z,94871.00
2022-10-19T05:38:23.856Z,94877.00
2022-10-19T05:40:53.612Z,94871.00
2022-10-19T05:43:20.776Z,94868.00
2022-10-19T05:45:47.572Z,94869.00
2022-10-19T05:48:14.469Z,94862.00
2022-10-19T05:50:41.362Z,94864.00
2022-10-19T05:53:08.285Z,94863.00
2022-10-19T05:55:37.783Z,94864.00
2022-10-19T05:58:04.851Z,94863.00
2022-10-19T06:00:31.712Z,94865.00
2022-10-19T06:02:59.259Z,94864.00
2022-10-19T06:05:31.675Z,94872.00
2022-10-19T06:07:58.532Z,94879.00
2022-10-19T06:10:25.621Z,94868.00
2022-10-19T06:12:55.031Z,94873.00
2022-10-19T06:15:21.850Z,94867.00
2022-10-19T06:17:48.711Z,94875.00
2022-10-19T06:20:15.596Z,94881.00
2022-10-19T06:22:42.779Z,94867.00
2022-10-19T06:25:09.937Z,94887.00
2022-10-19T06:27:37.358Z,94883.00
2022-10-19T06:30:05.440Z,94885.00
2022-10-19T06:32:36.993Z,94885.00
2022-10-19T06:35:03.944Z,94882.00
2022-10-19T06:37:30.909Z,94881.00
2022-10-19T06:39:57.940Z,94888.00
2022-10-19T06:42:24.775Z,94889.00
2022-10-19T06:44:53.838Z,94879.00
2022-10-19T06:47:22.840Z,94884.00
2022-10-19T06:49:49.667Z,94885.00
2022-10-19T06:52:16.511Z,94886.00
2022-10-19T06:54:45.712Z,94891.00
2022-10-19T06:57:12.596Z,94895.00
2022-10-19T06:59:39.512Z,94887.00
2022-10-19T07:02:06.674Z,94890.00
2022-10-19T07:04:33.578Z,94890.00
2022-10-19T07:07:00.486Z,94890.00
2022-10-19T07:09:29.950Z,94897.00
2022-10-19T07:11:56.897Z,94900.00
2022-10-19T07:14:28.443Z,94888.00
2022-10-19T07:16:55.665Z,94893.00
2022-10-19T07:19:26.446Z,94891.00
2022-10-19T07:21:55.958Z,94891.00
2022-10-19T07:24:23.370Z,94899.00
2022-10-19T07:26:50.215Z,94883.00
2022-10-19T07:29:17.366Z,94891.00
2022-10-19T07:31:44.295Z,94897.00
2022-10-19T07:34:17.744Z,94898.00
2022-10-19T07:36:48.037Z,94898.00
2022-10-19T07:39:19.542Z,94896.00
2022-10-19T07:41:49.100Z,94893.00
2022-10-19T07:44:16.238Z,94897.00
2022-10-19T07:46:44.009Z,94891.00
2022-10-19T07:49:16.367Z,94891.00
2022-10-19T07:51:43.372Z,94892.00
2022-10-19T07:54:13.097Z,94902.00
2022-10-19T07:56:42.491Z,94895.00
2022-10-19T07:59:10.319Z,94900.00
2022-10-19T08:01:44.877Z,94895.00
2022-10-19T08:04:56.022Z,94894.00
2022-10-19T08:07:03.150Z,94888.00
2022-10-19T08:09:53.193Z,94896.00
2022-10-19T08:12:19.344Z,94889.00
2022-10-19T08:14:47.970Z,94895.00
2022-10-19T08:17:17.465Z,94889.00
2022-10-19T08:19:47.282Z,94891.00
2022-10-19T08:22:16.702Z,94900.00
2022-10-19T08:24:43.768Z,94891.00
2022-10-19T08:27:15.077Z,94888.00
2022-10-19T08:29:41.964Z,94886.00
2022-10-19T08:32:08.943Z,94892.00
2022-10-19T08:34:42.566Z,94888.00
2022-10-19T08:37:19.916Z,94883.00
2022-10-19T08:39:58.678Z,94889.00
2022-10-19T08:42:47.779Z,94890.00
2022-10-19T08:48:23.170Z,94886.00
2022-10-19T08:50:53.279Z,94885.00
2022-10-19T08:53:54.941Z,94873.00
2022-10-19T08:56:51.502Z,94882.00
2022-10-19T08:59:35.197Z,94879.00
2022-10-19T09:02:20.434Z,94875.00
2022-10-19T09:05:06.110Z,94882.00
2022-10-19T09:07:45.485Z,94872.00
2022-10-19T09:10:17.923Z,94877.00
2022-10-19T09:12:55.098Z,94866.00
2022-10-19T09:15:41.825Z,94865.00
2022-10-19T09:18:30.691Z,94865.00
2022-10-19T09:21:16.787Z,94855.00
2022-10-19T09:24:09.216Z,94866.00
2022-10-19T09:26:53.353Z,94866.00
2022-10-19T09:30:05.538Z,94856.00
2022-10-19T09:32:37.458Z,94847.00
2022-10-19T09:35:23.390Z,94857.00
2022-10-19T09:37:54.121Z,94853.00
2022-10-19T09:40:29.069Z,94849.00
2022-10-19T09:43:02.695Z,94856.00
2022-10-19T09:46:18.581Z,94851.00
2022-10-19T09:48:52.364Z,94849.00
2022-10-19T09:51:21.186Z,94844.00
2022-10-19T09:53:53.577Z,94857.00
2022-10-19T09:56:24.338Z,94845.00
2022-10-19T09:59:00.097Z,94839.00
2022-10-19T10:01:41.556Z,94840.00
2022-10-19T10:04:17.221Z,94847.00
2022-10-19T10:06:48.119Z,94836.00
2022-10-19T10:09:24.024Z,94839.00
2022-10-19T10:14:40.254Z,94833.00
2022-10-19T10:17:12.450Z,94833.00
2022-10-19T10:19:58.122Z,94836.00
2022-10-19T10:23:03.325Z,94832.00
2022-10-19T10:25:34.556Z,94836.00
2022-10-19T10:28:18.598Z,94824.00
2022-10-19T10:30:51.058Z,94832.00
2022-10-19T10:33:40.337Z,94826.00
2022-10-19T10:36:12.643Z,94828.00
2022-10-19T10:38:56.741Z,94817.00
2022-10-19T10:41:40.517Z,94816.00
2022-10-19T10:44:29.794Z,94808.00
2022-10-19T10:47:02.855Z,94814.00
2022-10-19T10:49:36.945Z,94815.00
2022-10-19T10:52:16.456Z,94817.00
2022-10-19T10:55:12.397Z,94818.00
2022-10-19T10:57:45.760Z,94816.00
2022-10-19T11:00:26.621Z,94813.00
2022-10-19T11:03:29.129Z,94799.00
2022-10-19T11:06:05.584Z,94798.00
2022-10-19T11:08:52.445Z,94801.00
2022-10-19T11:11:32.397Z,94785.00
2022-10-19T11:14:22.791Z,94796.00
2022-10-19T11:16:54.090Z,94781.00
2022-10-19T11:19:43.060Z,94786.00
2022-10-19T11:22:34.999Z,94786.00
2022-10-19T11:25:19.370Z,94781.00
2022-10-19T11:28:27.444Z,94768.00
2022-10-19T11:30:59.955Z,94767.00
2022-10-19T11:33:50.801Z,94763.00
2022-10-19T11:36:47.069Z,94763.00
2022-10-19T11:39:28.791Z,94764.00
2022-10-19T11:42:16.220Z,94757.00
2022-10-19T11:45:18.458Z,94761.00
2022-10-19T11:48:12.995Z,94768.00
2022-10-19T11:51:16.816Z,94750.00
2022-10-19T11:54:18.002Z,94751.00
2022-10-19T11:57:11.159Z,94754.00
2022-10-19T12:00:13.726Z,94746.00
2022-10-19T12:03:18.844Z,94747.00
2022-10-19T12:06:09.119Z,94746.00
2022-10-19T12:09:13.562Z,94745.00
2022-10-19T12:12:30.981Z,94746.00
2022-10-19T12:15:31.582Z,94741.00
2022-10-19T12:18:14.491Z,94741.00
2022-10-19T12:20:57.255Z,94718.00
2022-10-19T12:23:48.244Z,94716.00
2022-10-19T12:26:21.344Z,94713.00
2022-10-19T12:28:55.684Z,94710.00
2022-10-19T12:31:27.510Z,94706.00
2022-10-19T12:34:38.020Z,94718.00
2022-10-19T12:37:26.227Z,94713.00
2022-10-19T12:40:40.201Z,94711.00
2022-10-19T12:43:10.105Z,94705.00
2022-10-19T12:45:41.867Z,94695.00
2022-10-19T12:48:08.694Z,94694.00
2022-10-19T12:50:52.781Z,94689.00
2022-10-19T12:53:38.837Z,94682.00
2022-10-19T12:56:14.697Z,94684.00
2022-10-19T12:58:46.769Z,94679.00
2022-10-19T13:01:43.942Z,94695.00
2022-10-19T13:04:20.289Z,94680.00
2022-10-19T13:06:59.182Z,94681.00
2022-10-19T13:09:44.825Z,94663.00
2022-10-19T13:12:17.821Z,94667.00
2022-10-19T13:15:07.004Z,94668.00
2022-10-19T13:17:46.516Z,94663.00
2022-10-19T13:20:16.484Z,94667.00
2022-10-19T13:23:01.367Z,94667.00
2022-10-19T13:25:33.468Z,94659.00
2022-10-19T13:28:17.911Z,94655.00
2022-10-19T13:30:44.681Z,94657.00
2022-10-19T13:33:29.195Z,94652.00
2022-10-19T13:36:06.498Z,94650.00
2022-10-19T13:39:07.774Z,94643.00
2022-10-19T13:41:34.593Z,94646.00
2022-10-19T13:44:22.172Z,94636.00
2022-10-19T13:47:09.333Z,94649.00
2022-10-19T13:49:56.566Z,94641.00
2022-10-19T13:52:26.135Z,94646.00
2022-10-19T13:55:11.625Z,94642.00
2022-10-19T13:58:07.117Z,94647.00
2022-10-19T14:01:22.090Z,94629.00
2022-10-19T14:04:21.383Z,94640.00
2022-10-19T14:06:59.123Z,94631.00
2022-10-19T14:09:46.235Z,94630.00
2022-10-19T14:12:38.912Z,94621.00
2022-10-19T14:15:18.783Z,94636.00
2022-10-19T14:17:48.348Z,94631.00
2022-10-19T14:20:31.241Z,94636.00
2022-10-19T14:23:18.131Z,94641.00
2022-10-19T14:26:10.594Z,94618.00
2022-10-19T14:28:38.747Z,94636.00
2022-10-19T14:31:20.640Z,94634.00
2022-10-19T14:33:54.241Z,94620.00
2022-10-19T14:36:30.031Z,94615.00
2022-10-19T14:38:57.667Z,94607.00
2022-10-19T14:41:27.589Z,94614.00
2022-10-19T14:43:56.636Z,94614.00
2022-10-19T14:46:33.183Z,94607.00
2022-10-19T14:49:05.927Z,94611.00
2022-10-19T14:52:01.274Z,94609.00
2022-10-19T14:54:37.233Z,94609.00
2022-10-19T14:57:16.902Z,94611.00
2022-10-19T14:59:46.506Z,94604.00
2022-10-19T15:02:27.373Z,94610.00
2022-10-19T15:04:57.501Z,94614.00
2022-10-19T15:07:41.107Z,94613.00
2022-10-19T15:10:35.596Z,94612.00
2022-10-19T15:13:06.868Z,94605.00
2022-10-19T15:15:38.969Z,94609.00
2022-10-19T15:18:25.157Z,94608.00
2022-10-19T15:21:18.012Z,94613.00
2022-10-19T15:23:49.299Z,94603.00
2022-10-19T15:26:25.289Z,94588.00
2022-10-19T15:28:54.453Z,94590.00
2022-10-19T15:31:26.382Z,94592.00
2022-10-19T15:33:59.560Z,94578.00
2022-10-19T15:36:28.550Z,94591.00
2022-10-19T15:39:06.250Z,94584.00
2022-10-19T15:41:47.597Z,94565.00
2022-10-19T15:44:44.543Z,94576.00
2022-10-19T15:47:19.125Z,94582.00
2022-10-19T15:49:51.639Z,94575.00
2022-10-19T15:52:22.355Z,94572.00
2022-10-19T15:54:51.192Z,94577.00
2022-10-19T15:57:35.462Z,94574.00
2022-10-19T16:00:16.232Z,94584.00
2022-10-19T16:02:43.366Z,94578.00
2022-10-19T16:05:10.917Z,94576.00
2022-10-19T16:07:42.076Z,94573.00
2022-10-19T16:10:17.633Z,94571.00
2022-10-19T16:12:44.601Z,94573.00
2022-10-19T16:15:23.315Z,94573.00
2022-10-19T16:17:58.777Z,94559.00
2022-10-19T16:20:28.785Z,94558.00
2022-10-19T16:22:55.798Z,94565.00
2022-10-19T16:25:23.207Z,94569.00
2022-10-19T16:27:50.186Z,94557.00
2022-10-19T16:30:19.333Z,94556.00
2022-10-19T16:32:49.218Z,94562.00
2022-10-19T16:35:16.914Z,94566.00
2022-10-19T16:37:43.880Z,94570.00
2022-10-19T16:40:11.200Z,94570.00
2022-10-19T16:42:40.471Z,94565.00
2022-10-19T16:45:09.641Z,94564.00
2022-10-19T16:47:36.582Z,94579.00
2022-10-19T16:50:06.036Z,94576.00
2022-10-19T16:52:33.598Z,94571.00
2022-10-19T16:55:01.090Z,94578.00
2022-10-19T16:57:30.545Z,94574.00
2022-10-19T16:59:59.673Z,94579.00
2022-10-19T17:02:29.901Z,94576.00
2022-10-19T17:04:56.812Z,94583.00
2022-10-19T17:07:24.410Z,94579.00
2022-10-19T17:09:55.066Z,94584.00
2022-10-19T17:12:24.325Z,94579.00
2022-10-19T17:14:51.377Z,94581.00
2022-10-19T17:17:18.409Z,94573.00
2022-10-19T17:19:48.719Z,94579.00
2022-10-19T17:22:15.654Z,94578.00
2022-10-19T17:24:42.557Z,94583.00
2022-10-19T17:27:13.974Z,94567.00
2022-10-19T17:29:40.805Z,94578.00
2022-10-19T17:32:10.048Z,94583.00
2022-10-19T17:34:37.113Z,94580.00
2022-10-19T17:37:06.567Z,94594.00
2022-10-19T17:39:35.608Z,94588.00
2022-10-19T17:42:04.601Z,94592.00
2022-10-19T17:44:31.914Z,94593.00
2022-10-19T17:47:00.701Z,94592.00
2022-10-19T17:49:30.727Z,94591.00
2022-10-19T17:51:58.216Z,94590.00
2022-10-19T17:54:25.498Z,94592.00
2022-10-19T17:56:52.427Z,94586.00
2022-10-19T17:59:30.156Z,94589.00
2022-10-19T18:02:03.745Z,94594.00
2022-10-19T18:04:30.666Z,94597.00
2022-10-19T18:06:57.848Z,94594.00
2022-10-19T18:09:24.676Z,94588.00
2022-10-19T18:11:51.733Z,94576.00
2022-10-19T18:14:18.665Z,94585.00
2022-10-19T18:16:52.055Z,94592.00
2022-10-19T18:19:19.188Z,94596.00
2022-10-19T18:21:47.776Z,94597.00
2022-10-19T18:24:19.838Z,94595.00
2022-10-19T18:26:50.847Z,94587.00
2022-10-19T18:29:27.543Z,94582.00
2022-10-19T18:31:59.303Z,94568.00
2022-10-19T18:34:28.919Z,94576.00
2022-10-19T18:36:55.915Z,94576.00
2022-10-19T18:39:28.277Z,94576.00
2022-10-19T18:41:55.327Z,94563.00
2022-10-19T18:44:26.417Z,94567.00
2022-10-19T18:46:56.546Z,94569.00
2022-10-19T18:49:24.196Z,94555.00
2022-10-19T18:52:00.665Z,94561.00
2022-10-19T18:54:28.087Z,94562.00
2022-10-19T18:56:55.839Z,94558.00
2022-10-19T18:59:24.970Z,94561.00
2022-10-19T19:01:52.171Z,94574.00
2022-10-19T19:04:21.557Z,94573.00
2022-10-19T19:06:53.266Z,94566.00
2022-10-19T19:09:21.160Z,94573.00
2022-10-19T19:11:48.337Z,94569.00
2022-10-19T19:14:20.889Z,94570.00
2022-10-19T19:16:47.925Z,94562.00
2022-10-19T19:19:17.315Z,94556.00
2022-10-19T19:21:45.522Z,94561.00
2022-10-19T19:24:16.159Z,94559.00
2022-10-19T19:26:50.127Z,94557.00
2022-10-19T19:29:21.213Z,94560.00
2022-10-19T19:31:51.360Z,94554.00
2022-10-19T19:34:21.920Z,94544.00
2022-10-19T19:36:49.210Z,94547.00
2022-10-19T19:39:19.924Z,94542.00
2022-10-19T19:41:48.607Z,94533.00
2022-10-19T19:44:18.264Z,94534.00
2022-10-19T19:46:45.232Z,94538.00
2022-10-19T19:49:12.480Z,94533.00
2022-10-19T19:51:39.503Z,94527.00
2022-10-19T19:54:11.610Z,94529.00
2022-10-19T19:56:42.792Z,94517.00
2022-10-19T19:59:12.639Z,94522.00
2022-10-19T20:01:42.854Z,94517.00
2022-10-19T20:04:12.597Z,94515.00
2022-10-19T20:06:40.723Z,94517.00
2022-10-19T20:09:08.681Z,94527.00
2022-10-19T20:11:42.063Z,94525.00
2022-10-19T20:14:12.410Z,94517.00
2022-10-19T20:16:41.556Z,94527.00
2022-10-19T20:19:11.718Z,94527.00
2022-10-19T20:21:39.740Z,94526.00
2022-10-19T20:24:07.244Z,94527.00
2022-10-19T20:26:36.653Z,94519.00
2022-10-19T20:29:04.570Z,94525.00
2022-10-19T20:31:39.356Z,94522.00
2022-10-19T20:34:14.047Z,94512.00
2022-10-19T20:36:41.404Z,94522.00
2022-10-19T20:39:08.918Z,94529.00
2022-10-19T20:41:36.097Z,94526.00
2022-10-19T20:44:03.095Z,94520.00
2022-10-19T20:46:31.390Z,94523.00
2022-10-19T20:49:01.028Z,94533.00
2022-10-19T20:51:32.533Z,94529.00
2022-10-19T20:54:02.789Z,94530.00
2022-10-19T20:56:38.090Z,94517.00
2022-10-19T20:59:16.572Z,94514.00
2022-10-19T21:01:46.138Z,94508.00
2022-10-19T21:04:18.379Z,94513.00
2022-10-19T21:06:48.479Z,94514.00
2022-10-19T21:09:21.161Z,94518.00
2022-10-19T21:11:52.938Z,94505.00
2022-10-19T21:14:28.570Z,94517.00
2022-10-19T21:17:02.094Z,94519.00
2022-10-19T21:19:38.616Z,94524.00
2022-10-19T21:22:08.510Z,94523.00
2022-10-19T21:24:36.538Z,94520.00
2022-10-19T21:27:07.619Z,94512.00
2022-10-19T21:29:35.900Z,94516.00
2022-10-19T21:32:03.032Z,94519.00
2022-10-19T21:34:32.671Z,94512.00
2022-10-19T21:36:59.712Z,94505.00
2022-10-19T21:39:26.756Z,94505.00
2022-10-19T21:41:53.658Z,94509.00
2022-10-19T21:44:23.003Z,94512.00
2022-10-19T21:46:50.325Z,94506.00
2022-10-19T21:49:17.452Z,94509.00
2022-10-19T21:51:56.376Z,94513.00
2022-10-19T21:54:25.300Z,94514.00
2022-10-19T21:56:53.166Z,94512.00
2022-10-19T21:59:20.117Z,94504.00
2022-10-19T22:01:50.200Z,94501.00
2022-10-19T22:04:20.694Z,94503.00
2022-10-19T22:06:47.831Z,94501.00
2022-10-19T22:09:19.961Z,94480.00
2022-10-19T22:11:52.884Z,94494.00
2022-10-19T22:14:23.140Z,94479.00
2022-10-19T22:16:50.034Z,94486.00
2022-10-19T22:19:22.277Z,94474.00
2022-10-19T22:21:49.139Z,94466.00
2022-10-19T22:24:16.293Z,94464.00
2022-10-19T22:26:47.489Z,94472.00
2022-10-19T22:29:14.520Z,94475.00
2022-10-19T22:31:41.797Z,94477.00
2022-10-19T22:34:14.848Z,94472.00
2022-10-19T22:36:44.307Z,94472.00
2022-10-19T22:39:14.159Z,94475.00
2022-10-19T22:41:41.051Z,94463.00
2022-10-19T22:44:08.421Z,94451.00
2022-10-19T22:46:35.289Z,94452.00
2022-10-19T22:51:40.783Z,94452.00
2022-10-19T22:54:07.661Z,94448.00
2022-10-19T22:56:34.842Z,94442.00
2022-10-19T22:59:06.202Z,94438.00
2022-10-19T23:01:36.075Z,94427.00
2022-10-19T23:04:05.550Z,94428.00
2022-10-19T23:06:39.546Z,94422.00
2022-10-19T23:09:06.678Z,94419.00
2022-10-19T23:11:36.592Z,94421.00
2022-10-19T23:14:03.543Z,94422.00
2022-10-19T23:16:35.488Z,94425.00
2022-10-19T23:19:02.308Z,94421.00
2022-10-19T23:21:29.188Z,94423.00
2022-10-19T23:23:56.136Z,94427.00
2022-10-19T23:26:27.569Z,94419.00
2022-10-19T23:28:54.402Z,94421.00
2022-10-19T23:31:26.795Z,94414.00
2022-10-19T23:33:54.417Z,94413.00
2022-10-19T23:36:27.689Z,94411.00
2022-10-19T23:38:56.260Z,94411.00
2022-10-19T23:41:23.575Z,94406.00
2022-10-19T23:43:55.283Z,94410.00
2022-10-19T23:46:22.133Z,94410.00
2022-10-19T23:48:48.973Z,94411.00
2022-10-19T23:51:21.249Z,94420.00
2022-10-19T23:53:50.032Z,94414.00
2022-10-19T23:56:26.916Z,94413.00
2022-10-19T23:58:54.711Z,94409.00
